sensor_id;sensor_type;location;lat;lon;timestamp;P1;durP1;ratioP1;P2;durP2;ratioP2
17422;SDS011;8829;47.932;7.810;2023-08-17T00:01:29;4.80;;;4.30;;
17422;SDS011;8829;47.932;7.810;2023-08-17T00:03:56;5.03;;;4.63;;
17422;SDS011;8829;47.932;7.810;2023-08-17T00:06:23;4.87;;;4.40;;
17422;SDS011;8829;47.932;7.810;2023-08-17T00:08:50;5.10;;;4.50;;
17422;SDS011;8829;47.932;7.810;2023-08-17T00:11:17;5.30;;;4.80;;
17422;SDS011;8829;47.932;7.810;2023-08-17T00:13:44;12.57;;;4.53;;
17422;SDS011;8829;47.932;7.810;2023-08-17T00:16:12;5.27;;;4.73;;
17422;SDS011;8829;47.932;7.810;2023-08-17T00:18:38;5.27;;;4.87;;
17422;SDS011;8829;47.932;7.810;2023-08-17T00:21:05;5.33;;;4.93;;
17422;SDS011;8829;47.932;7.810;2023-08-17T00:23:32;5.50;;;4.87;;
17422;SDS011;8829;47.932;7.810;2023-08-17T00:25:59;6.50;;;4.67;;
17422;SDS011;8829;47.932;7.810;2023-08-17T00:28:26;6.27;;;4.70;;
17422;SDS011;8829;47.932;7.810;2023-08-17T00:30:52;8.33;;;5.37;;
17422;SDS011;8829;47.932;7.810;2023-08-17T00:33:20;4.90;;;4.60;;
17422;SDS011;8829;47.932;7.810;2023-08-17T00:35:47;5.77;;;5.17;;
17422;SDS011;8829;47.932;7.810;2023-08-17T00:38:14;5.00;;;4.60;;
17422;SDS011;8829;47.932;7.810;2023-08-17T00:40:40;4.70;;;4.40;;
17422;SDS011;8829;47.932;7.810;2023-08-17T00:43:07;4.50;;;4.20;;
17422;SDS011;8829;47.932;7.810;2023-08-17T00:45:34;5.60;;;4.80;;
17422;SDS011;8829;47.932;7.810;2023-08-17T00:48:01;5.40;;;4.90;;
17422;SDS011;8829;47.932;7.810;2023-08-17T00:50:31;5.83;;;5.20;;
17422;SDS011;8829;47.932;7.810;2023-08-17T00:52:58;5.17;;;4.73;;
17422;SDS011;8829;47.932;7.810;2023-08-17T00:55:25;5.43;;;4.40;;
17422;SDS011;8829;47.932;7.810;2023-08-17T00:57:51;6.80;;;4.73;;
17422;SDS011;8829;47.932;7.810;2023-08-17T01:00:19;6.83;;;5.13;;
17422;SDS011;8829;47.932;7.810;2023-08-17T01:02:47;5.43;;;4.93;;
17422;SDS011;8829;47.932;7.810;2023-08-17T01:05:14;4.80;;;4.40;;
17422;SDS011;8829;47.932;7.810;2023-08-17T01:07:42;5.90;;;4.83;;
17422;SDS011;8829;47.932;7.810;2023-08-17T01:10:09;4.73;;;4.40;;
17422;SDS011;8829;47.932;7.810;2023-08-17T01:12:38;5.57;;;4.83;;
17422;SDS011;8829;47.932;7.810;2023-08-17T01:15:10;4.33;;;4.03;;
17422;SDS011;8829;47.932;7.810;2023-08-17T01:17:42;4.33;;;4.03;;
17422;SDS011;8829;47.932;7.810;2023-08-17T01:20:12;7.50;;;5.23;;
17422;SDS011;8829;47.932;7.810;2023-08-17T01:22:45;5.10;;;4.60;;
17422;SDS011;8829;47.932;7.810;2023-08-17T01:25:15;6.87;;;4.40;;
17422;SDS011;8829;47.932;7.810;2023-08-17T01:27:43;4.93;;;4.43;;
17422;SDS011;8829;47.932;7.810;2023-08-17T01:30:12;6.27;;;5.03;;
17422;SDS011;8829;47.932;7.810;2023-08-17T01:32:42;6.73;;;5.00;;
17422;SDS011;8829;47.932;7.810;2023-08-17T01:35:16;5.20;;;4.70;;
17422;SDS011;8829;47.932;7.810;2023-08-17T01:37:50;4.53;;;3.87;;
17422;SDS011;8829;47.932;7.810;2023-08-17T01:40:20;5.27;;;4.77;;
17422;SDS011;8829;47.932;7.810;2023-08-17T01:42:48;5.30;;;4.80;;
17422;SDS011;8829;47.932;7.810;2023-08-17T01:45:15;5.80;;;5.30;;
17422;SDS011;8829;47.932;7.810;2023-08-17T01:47:43;7.63;;;6.93;;
17422;SDS011;8829;47.932;7.810;2023-08-17T01:50:09;7.47;;;6.43;;
17422;SDS011;8829;47.932;7.810;2023-08-17T01:52:36;8.33;;;7.63;;
17422;SDS011;8829;47.932;7.810;2023-08-17T01:55:03;9.20;;;7.80;;
17422;SDS011;8829;47.932;7.810;2023-08-17T01:57:32;9.67;;;8.53;;
17422;SDS011;8829;47.932;7.810;2023-08-17T01:59:59;7.90;;;7.20;;
17422;SDS011;8829;47.932;7.810;2023-08-17T02:02:26;8.97;;;8.07;;
17422;SDS011;8829;47.932;7.810;2023-08-17T02:04:52;9.47;;;8.57;;
17422;SDS011;8829;47.932;7.810;2023-08-17T02:07:19;10.23;;;8.70;;
17422;SDS011;8829;47.932;7.810;2023-08-17T02:09:46;10.90;;;9.90;;
17422;SDS011;8829;47.932;7.810;2023-08-17T02:12:12;10.37;;;9.37;;
17422;SDS011;8829;47.932;7.810;2023-08-17T02:14:40;11.63;;;10.53;;
17422;SDS011;8829;47.932;7.810;2023-08-17T02:17:07;10.97;;;9.87;;
17422;SDS011;8829;47.932;7.810;2023-08-17T02:19:34;9.43;;;8.60;;
17422;SDS011;8829;47.932;7.810;2023-08-17T02:22:01;7.83;;;7.03;;
17422;SDS011;8829;47.932;7.810;2023-08-17T02:24:28;8.23;;;6.57;;
17422;SDS011;8829;47.932;7.810;2023-08-17T02:26:54;6.93;;;6.27;;
17422;SDS011;8829;47.932;7.810;2023-08-17T02:29:21;8.17;;;7.37;;
17422;SDS011;8829;47.932;7.810;2023-08-17T02:31:49;10.40;;;9.13;;
17422;SDS011;8829;47.932;7.810;2023-08-17T02:34:16;8.57;;;7.77;;
17422;SDS011;8829;47.932;7.810;2023-08-17T02:36:42;6.93;;;6.40;;
17422;SDS011;8829;47.932;7.810;2023-08-17T02:39:09;6.60;;;6.10;;
17422;SDS011;8829;47.932;7.810;2023-08-17T02:41:36;5.57;;;5.17;;
17422;SDS011;8829;47.932;7.810;2023-08-17T02:44:03;5.40;;;4.90;;
17422;SDS011;8829;47.932;7.810;2023-08-17T02:46:30;6.67;;;5.97;;
17422;SDS011;8829;47.932;7.810;2023-08-17T02:48:58;9.40;;;7.10;;
17422;SDS011;8829;47.932;7.810;2023-08-17T02:51:24;11.43;;;9.23;;
17422;SDS011;8829;47.932;7.810;2023-08-17T02:53:51;10.57;;;9.43;;
17422;SDS011;8829;47.932;7.810;2023-08-17T02:56:18;9.53;;;7.43;;
17422;SDS011;8829;47.932;7.810;2023-08-17T02:58:45;10.20;;;7.93;;
17422;SDS011;8829;47.932;7.810;2023-08-17T03:01:11;7.90;;;7.30;;
17422;SDS011;8829;47.932;7.810;2023-08-17T03:03:38;7.10;;;6.50;;
17422;SDS011;8829;47.932;7.810;2023-08-17T03:06:06;9.60;;;8.70;;
17422;SDS011;8829;47.932;7.810;2023-08-17T03:08:33;32.10;;;10.67;;
17422;SDS011;8829;47.932;7.810;2023-08-17T03:11:00;15.13;;;11.30;;
17422;SDS011;8829;47.932;7.810;2023-08-17T03:13:26;13.53;;;10.97;;
17422;SDS011;8829;47.932;7.810;2023-08-17T03:15:54;11.90;;;10.50;;
17422;SDS011;8829;47.932;7.810;2023-08-17T03:18:20;21.23;;;11.17;;
17422;SDS011;8829;47.932;7.810;2023-08-17T03:20:47;11.80;;;8.63;;
17422;SDS011;8829;47.932;7.810;2023-08-17T03:23:15;9.90;;;8.90;;
17422;SDS011;8829;47.932;7.810;2023-08-17T03:25:42;9.00;;;8.00;;
17422;SDS011;8829;47.932;7.810;2023-08-17T03:28:08;9.23;;;6.90;;
17422;SDS011;8829;47.932;7.810;2023-08-17T03:30:35;8.70;;;7.50;;
17422;SDS011;8829;47.932;7.810;2023-08-17T03:33:02;8.57;;;7.77;;
17422;SDS011;8829;47.932;7.810;2023-08-17T03:35:29;8.03;;;7.33;;
17422;SDS011;8829;47.932;7.810;2023-08-17T03:37:56;9.13;;;8.13;;
17422;SDS011;8829;47.932;7.810;2023-08-17T03:40:24;8.10;;;7.17;;
17422;SDS011;8829;47.932;7.810;2023-08-17T03:42:51;10.93;;;9.83;;
17422;SDS011;8829;47.932;7.810;2023-08-17T03:45:17;13.63;;;11.33;;
17422;SDS011;8829;47.932;7.810;2023-08-17T03:47:44;10.37;;;9.37;;
17422;SDS011;8829;47.932;7.810;2023-08-17T03:50:10;11.57;;;10.47;;
17422;SDS011;8829;47.932;7.810;2023-08-17T03:52:37;11.73;;;10.53;;
17422;SDS011;8829;47.932;7.810;2023-08-17T03:55:04;16.83;;;11.23;;
17422;SDS011;8829;47.932;7.810;2023-08-17T03:57:33;12.60;;;11.30;;
17422;SDS011;8829;47.932;7.810;2023-08-17T04:00:00;13.90;;;12.37;;
17422;SDS011;8829;47.932;7.810;2023-08-17T04:02:27;13.57;;;12.17;;
17422;SDS011;8829;47.932;7.810;2023-08-17T04:04:53;16.73;;;11.63;;
17422;SDS011;8829;47.932;7.810;2023-08-17T04:07:20;14.63;;;12.67;;
17422;SDS011;8829;47.932;7.810;2023-08-17T04:09:48;16.87;;;11.40;;
17422;SDS011;8829;47.932;7.810;2023-08-17T04:12:14;15.27;;;11.67;;
17422;SDS011;8829;47.932;7.810;2023-08-17T04:14:42;15.30;;;11.53;;
17422;SDS011;8829;47.932;7.810;2023-08-17T04:17:09;18.03;;;12.07;;
17422;SDS011;8829;47.932;7.810;2023-08-17T04:19:36;15.07;;;12.17;;
17422;SDS011;8829;47.932;7.810;2023-08-17T04:22:03;14.50;;;13.00;;
17422;SDS011;8829;47.932;7.810;2023-08-17T04:24:29;16.53;;;12.37;;
17422;SDS011;8829;47.932;7.810;2023-08-17T04:26:56;18.37;;;12.13;;
17422;SDS011;8829;47.932;7.810;2023-08-17T04:29:22;13.07;;;10.20;;
17422;SDS011;8829;47.932;7.810;2023-08-17T04:31:50;15.00;;;11.93;;
17422;SDS011;8829;47.932;7.810;2023-08-17T04:34:17;13.03;;;11.73;;
17422;SDS011;8829;47.932;7.810;2023-08-17T04:36:44;18.10;;;11.83;;
17422;SDS011;8829;47.932;7.810;2023-08-17T04:39:11;14.83;;;12.73;;
17422;SDS011;8829;47.932;7.810;2023-08-17T04:41:37;14.00;;;11.97;;
17422;SDS011;8829;47.932;7.810;2023-08-17T04:44:05;17.40;;;12.83;;
17422;SDS011;8829;47.932;7.810;2023-08-17T04:46:31;17.50;;;14.00;;
17422;SDS011;8829;47.932;7.810;2023-08-17T04:49:00;15.37;;;12.70;;
17422;SDS011;8829;47.932;7.810;2023-08-17T04:51:26;18.80;;;14.13;;
17422;SDS011;8829;47.932;7.810;2023-08-17T04:53:53;18.83;;;13.47;;
17422;SDS011;8829;47.932;7.810;2023-08-17T04:56:20;15.13;;;12.73;;
17422;SDS011;8829;47.932;7.810;2023-08-17T04:58:46;20.37;;;14.30;;
17422;SDS011;8829;47.932;7.810;2023-08-17T05:01:13;14.77;;;13.17;;
17422;SDS011;8829;47.932;7.810;2023-08-17T05:03:40;16.73;;;12.50;;
17422;SDS011;8829;47.932;7.810;2023-08-17T05:06:08;16.20;;;13.47;;
17422;SDS011;8829;47.932;7.810;2023-08-17T05:08:34;15.67;;;13.37;;
17422;SDS011;8829;47.932;7.810;2023-08-17T05:11:01;17.13;;;14.10;;
17422;SDS011;8829;47.932;7.810;2023-08-17T05:13:28;14.70;;;13.20;;
17422;SDS011;8829;47.932;7.810;2023-08-17T05:15:54;15.07;;;13.57;;
17422;SDS011;8829;47.932;7.810;2023-08-17T05:18:21;26.27;;;15.13;;
17422;SDS011;8829;47.932;7.810;2023-08-17T05:20:48;19.50;;;13.80;;
17422;SDS011;8829;47.932;7.810;2023-08-17T05:23:16;17.53;;;13.63;;
17422;SDS011;8829;47.932;7.810;2023-08-17T05:25:45;17.93;;;14.40;;
17422;SDS011;8829;47.932;7.810;2023-08-17T05:28:12;17.60;;;14.40;;
17422;SDS011;8829;47.932;7.810;2023-08-17T05:30:39;22.47;;;14.33;;
17422;SDS011;8829;47.932;7.810;2023-08-17T05:33:05;18.47;;;14.73;;
17422;SDS011;8829;47.932;7.810;2023-08-17T05:35:32;17.23;;;15.17;;
17422;SDS011;8829;47.932;7.810;2023-08-17T05:37:59;16.03;;;13.23;;
17422;SDS011;8829;47.932;7.810;2023-08-17T05:40:28;18.27;;;14.70;;
17422;SDS011;8829;47.932;7.810;2023-08-17T05:42:55;17.53;;;14.40;;
17422;SDS011;8829;47.932;7.810;2023-08-17T05:45:22;14.60;;;12.27;;
17422;SDS011;8829;47.932;7.810;2023-08-17T05:47:49;13.30;;;11.57;;
17422;SDS011;8829;47.932;7.810;2023-08-17T05:50:15;11.47;;;10.27;;
17422;SDS011;8829;47.932;7.810;2023-08-17T05:52:42;14.77;;;11.27;;
17422;SDS011;8829;47.932;7.810;2023-08-17T05:55:09;15.07;;;12.00;;
17422;SDS011;8829;47.932;7.810;2023-08-17T05:57:37;13.27;;;10.77;;
17422;SDS011;8829;47.932;7.810;2023-08-17T06:00:04;12.43;;;10.57;;
17422;SDS011;8829;47.932;7.810;2023-08-17T06:02:33;11.17;;;10.07;;
17422;SDS011;8829;47.932;7.810;2023-08-17T06:05:00;10.93;;;9.83;;
17422;SDS011;8829;47.932;7.810;2023-08-17T06:07:27;12.70;;;10.80;;
17422;SDS011;8829;47.932;7.810;2023-08-17T06:09:53;15.47;;;10.27;;
17422;SDS011;8829;47.932;7.810;2023-08-17T06:12:20;19.43;;;10.60;;
17422;SDS011;8829;47.932;7.810;2023-08-17T06:14:48;12.00;;;10.80;;
17422;SDS011;8829;47.932;7.810;2023-08-17T06:17:15;12.93;;;10.47;;
17422;SDS011;8829;47.932;7.810;2023-08-17T06:19:41;10.97;;;9.87;;
17422;SDS011;8829;47.932;7.810;2023-08-17T06:22:08;10.30;;;9.30;;
17422;SDS011;8829;47.932;7.810;2023-08-17T06:24:35;12.60;;;10.33;;
17422;SDS011;8829;47.932;7.810;2023-08-17T06:27:01;9.90;;;9.00;;
17422;SDS011;8829;47.932;7.810;2023-08-17T06:29:28;10.80;;;9.70;;
17422;SDS011;8829;47.932;7.810;2023-08-17T06:31:56;12.20;;;9.70;;
17422;SDS011;8829;47.932;7.810;2023-08-17T06:34:23;10.87;;;9.83;;
17422;SDS011;8829;47.932;7.810;2023-08-17T06:36:56;10.27;;;9.27;;
17422;SDS011;8829;47.932;7.810;2023-08-17T06:39:24;12.07;;;10.60;;
17422;SDS011;8829;47.932;7.810;2023-08-17T06:41:51;11.73;;;9.03;;
17422;SDS011;8829;47.932;7.810;2023-08-17T06:44:17;9.73;;;8.77;;
17422;SDS011;8829;47.932;7.810;2023-08-17T06:46:44;11.40;;;10.20;;
17422;SDS011;8829;47.932;7.810;2023-08-17T06:49:12;9.90;;;9.00;;
17422;SDS011;8829;47.932;7.810;2023-08-17T06:51:39;10.90;;;9.23;;
17422;SDS011;8829;47.932;7.810;2023-08-17T06:54:07;9.53;;;8.57;;
17422;SDS011;8829;47.932;7.810;2023-08-17T06:56:34;8.97;;;8.07;;
17422;SDS011;8829;47.932;7.810;2023-08-17T06:59:01;9.33;;;8.33;;
17422;SDS011;8829;47.932;7.810;2023-08-17T07:01:27;8.93;;;8.03;;
17422;SDS011;8829;47.932;7.810;2023-08-17T07:03:54;9.90;;;8.83;;
17422;SDS011;8829;47.932;7.810;2023-08-17T07:06:23;9.57;;;8.60;;
17422;SDS011;8829;47.932;7.810;2023-08-17T07:08:50;8.70;;;7.80;;
17422;SDS011;8829;47.932;7.810;2023-08-17T07:11:17;9.50;;;8.50;;
17422;SDS011;8829;47.932;7.810;2023-08-17T07:13:44;9.77;;;8.43;;
17422;SDS011;8829;47.932;7.810;2023-08-17T07:16:11;9.53;;;8.27;;
17422;SDS011;8829;47.932;7.810;2023-08-17T07:18:38;9.23;;;8.33;;
17422;SDS011;8829;47.932;7.810;2023-08-17T07:21:05;9.93;;;8.17;;
17422;SDS011;8829;47.932;7.810;2023-08-17T07:23:33;8.73;;;7.83;;
17422;SDS011;8829;47.932;7.810;2023-08-17T07:25:59;9.23;;;8.30;;
17422;SDS011;8829;47.932;7.810;2023-08-17T07:28:26;10.47;;;7.67;;
17422;SDS011;8829;47.932;7.810;2023-08-17T07:30:53;10.53;;;9.03;;
17422;SDS011;8829;47.932;7.810;2023-08-17T07:33:20;10.80;;;9.33;;
17422;SDS011;8829;47.932;7.810;2023-08-17T07:35:47;9.67;;;8.67;;
17422;SDS011;8829;47.932;7.810;2023-08-17T07:38:13;9.97;;;8.33;;
17422;SDS011;8829;47.932;7.810;2023-08-17T07:40:42;9.70;;;7.83;;
17422;SDS011;8829;47.932;7.810;2023-08-17T07:43:08;12.70;;;8.80;;
17422;SDS011;8829;47.932;7.810;2023-08-17T07:45:35;9.30;;;8.40;;
17422;SDS011;8829;47.932;7.810;2023-08-17T07:48:02;11.03;;;9.30;;
17422;SDS011;8829;47.932;7.810;2023-08-17T07:50:29;12.67;;;8.77;;
17422;SDS011;8829;47.932;7.810;2023-08-17T07:52:55;11.20;;;8.70;;
17422;SDS011;8829;47.932;7.810;2023-08-17T07:55:22;10.67;;;9.40;;
17422;SDS011;8829;47.932;7.810;2023-08-17T07:57:50;10.03;;;8.10;;
17422;SDS011;8829;47.932;7.810;2023-08-17T08:00:17;10.93;;;9.27;;
17422;SDS011;8829;47.932;7.810;2023-08-17T08:02:45;10.10;;;8.83;;
17422;SDS011;8829;47.932;7.810;2023-08-17T08:05:12;12.17;;;9.90;;
17422;SDS011;8829;47.932;7.810;2023-08-17T08:07:39;11.53;;;10.07;;
17422;SDS011;8829;47.932;7.810;2023-08-17T08:10:07;12.00;;;10.00;;
17422;SDS011;8829;47.932;7.810;2023-08-17T08:12:34;11.90;;;10.50;;
17422;SDS011;8829;47.932;7.810;2023-08-17T08:15:02;13.77;;;10.87;;
17422;SDS011;8829;47.932;7.810;2023-08-17T08:17:29;13.23;;;11.63;;
17422;SDS011;8829;47.932;7.810;2023-08-17T08:19:56;13.50;;;11.67;;
17422;SDS011;8829;47.932;7.810;2023-08-17T08:22:24;13.30;;;10.73;;
17422;SDS011;8829;47.932;7.810;2023-08-17T08:24:51;13.47;;;11.13;;
17422;SDS011;8829;47.932;7.810;2023-08-17T08:27:18;18.30;;;12.47;;
17422;SDS011;8829;47.932;7.810;2023-08-17T08:29:44;11.80;;;10.60;;
17422;SDS011;8829;47.932;7.810;2023-08-17T08:32:13;12.20;;;10.90;;
17422;SDS011;8829;47.932;7.810;2023-08-17T08:34:39;13.93;;;11.63;;
17422;SDS011;8829;47.932;7.810;2023-08-17T08:37:06;12.40;;;11.03;;
17422;SDS011;8829;47.932;7.810;2023-08-17T08:39:33;13.97;;;11.07;;
17422;SDS011;8829;47.932;7.810;2023-08-17T08:42:14;14.57;;;11.50;;
17422;SDS011;8829;47.932;7.810;2023-08-17T08:44:41;11.17;;;9.93;;
17422;SDS011;8829;47.932;7.810;2023-08-17T08:47:08;11.63;;;10.43;;
17422;SDS011;8829;47.932;7.810;2023-08-17T08:49:37;11.00;;;9.83;;
17422;SDS011;8829;47.932;7.810;2023-08-17T08:52:07;11.60;;;9.63;;
17422;SDS011;8829;47.932;7.810;2023-08-17T08:54:34;11.90;;;10.60;;
17422;SDS011;8829;47.932;7.810;2023-08-17T08:57:03;14.80;;;10.50;;
17422;SDS011;8829;47.932;7.810;2023-08-17T08:59:34;12.20;;;10.90;;
17422;SDS011;8829;47.932;7.810;2023-08-17T09:02:09;9.87;;;8.53;;
17422;SDS011;8829;47.932;7.810;2023-08-17T09:04:38;11.70;;;9.40;;
17422;SDS011;8829;47.932;7.810;2023-08-17T09:07:05;11.43;;;10.20;;
17422;SDS011;8829;47.932;7.810;2023-08-17T09:09:33;11.20;;;9.23;;
17422;SDS011;8829;47.932;7.810;2023-08-17T09:12:02;10.57;;;9.47;;
17422;SDS011;8829;47.932;7.810;2023-08-17T09:14:29;9.30;;;8.40;;
17422;SDS011;8829;47.932;7.810;2023-08-17T09:16:56;11.30;;;8.53;;
17422;SDS011;8829;47.932;7.810;2023-08-17T09:19:24;11.00;;;9.80;;
17422;SDS011;8829;47.932;7.810;2023-08-17T09:21:52;9.13;;;7.87;;
17422;SDS011;8829;47.932;7.810;2023-08-17T09:24:19;7.80;;;7.00;;
17422;SDS011;8829;47.932;7.810;2023-08-17T09:26:45;9.63;;;7.47;;
17422;SDS011;8829;47.932;7.810;2023-08-17T09:29:18;8.17;;;7.37;;
17422;SDS011;8829;47.932;7.810;2023-08-17T09:31:46;8.07;;;6.70;;
17422;SDS011;8829;47.932;7.810;2023-08-17T09:34:14;7.77;;;6.90;;
17422;SDS011;8829;47.932;7.810;2023-08-17T09:36:41;7.23;;;6.03;;
17422;SDS011;8829;47.932;7.810;2023-08-17T09:39:09;7.50;;;6.80;;
17422;SDS011;8829;47.932;7.810;2023-08-17T09:41:38;7.53;;;6.20;;
17422;SDS011;8829;47.932;7.810;2023-08-17T09:44:07;6.97;;;6.37;;
17422;SDS011;8829;47.932;7.810;2023-08-17T09:46:34;7.40;;;5.83;;
17422;SDS011;8829;47.932;7.810;2023-08-17T09:49:01;8.50;;;5.90;;
17422;SDS011;8829;47.932;7.810;2023-08-17T09:51:30;6.53;;;5.90;;
17422;SDS011;8829;47.932;7.810;2023-08-17T09:53:57;6.63;;;5.93;;
17422;SDS011;8829;47.932;7.810;2023-08-17T09:56:25;6.53;;;5.83;;
17422;SDS011;8829;47.932;7.810;2023-08-17T09:58:53;9.37;;;6.60;;
17422;SDS011;8829;47.932;7.810;2023-08-17T10:01:21;5.93;;;4.93;;
17422;SDS011;8829;47.932;7.810;2023-08-17T10:03:48;5.17;;;4.80;;
17422;SDS011;8829;47.932;7.810;2023-08-17T10:06:17;5.87;;;4.83;;
17422;SDS011;8829;47.932;7.810;2023-08-17T10:08:50;6.17;;;5.67;;
17422;SDS011;8829;47.932;7.810;2023-08-17T10:11:21;5.67;;;5.17;;
17422;SDS011;8829;47.932;7.810;2023-08-17T10:13:52;5.93;;;5.07;;
17422;SDS011;8829;47.932;7.810;2023-08-17T10:16:26;4.70;;;4.40;;
17422;SDS011;8829;47.932;7.810;2023-08-17T10:18:59;5.83;;;5.13;;
17422;SDS011;8829;47.932;7.810;2023-08-17T10:21:32;6.20;;;5.60;;
17422;SDS011;8829;47.932;7.810;2023-08-17T10:24:03;6.23;;;5.77;;
17422;SDS011;8829;47.932;7.810;2023-08-17T10:26:31;6.10;;;4.93;;
17422;SDS011;8829;47.932;7.810;2023-08-17T10:29:01;5.53;;;4.93;;
17422;SDS011;8829;47.932;7.810;2023-08-17T10:31:29;5.37;;;4.90;;
17422;SDS011;8829;47.932;7.810;2023-08-17T10:33:56;6.30;;;4.47;;
17422;SDS011;8829;47.932;7.810;2023-08-17T10:36:23;7.53;;;4.70;;
17422;SDS011;8829;47.932;7.810;2023-08-17T10:41:46;5.93;;;4.30;;
17422;SDS011;8829;47.932;7.810;2023-08-17T10:44:15;4.93;;;3.50;;
17422;SDS011;8829;47.932;7.810;2023-08-17T10:46:43;3.40;;;3.20;;
17422;SDS011;8829;47.932;7.810;2023-08-17T10:49:24;3.83;;;3.43;;
17422;SDS011;8829;47.932;7.810;2023-08-17T10:51:59;4.17;;;3.30;;
17422;SDS011;8829;47.932;7.810;2023-08-17T10:54:35;3.00;;;2.77;;
17422;SDS011;8829;47.932;7.810;2023-08-17T11:00:05;3.53;;;2.83;;
17422;SDS011;8829;47.932;7.810;2023-08-17T11:02:45;3.27;;;2.70;;
17422;SDS011;8829;47.932;7.810;2023-08-17T11:05:23;4.63;;;2.80;;
17422;SDS011;8829;47.932;7.810;2023-08-17T11:08:01;3.37;;;3.03;;
17422;SDS011;8829;47.932;7.810;2023-08-17T11:10:28;2.70;;;2.50;;
17422;SDS011;8829;47.932;7.810;2023-08-17T11:12:56;3.67;;;2.90;;
17422;SDS011;8829;47.932;7.810;2023-08-17T11:15:30;3.50;;;2.53;;
17422;SDS011;8829;47.932;7.810;2023-08-17T11:18:04;5.57;;;2.80;;
17422;SDS011;8829;47.932;7.810;2023-08-17T11:20:32;2.60;;;2.40;;
17422;SDS011;8829;47.932;7.810;2023-08-17T11:22:59;4.93;;;2.67;;
17422;SDS011;8829;47.932;7.810;2023-08-17T11:25:25;2.77;;;2.57;;
17422;SDS011;8829;47.932;7.810;2023-08-17T11:27:53;2.72;;;2.53;;
17422;SDS011;8829;47.932;7.810;2023-08-17T11:30:20;6.53;;;3.07;;
17422;SDS011;8829;47.932;7.810;2023-08-17T11:32:48;3.30;;;2.92;;
17422;SDS011;8829;47.932;7.810;2023-08-17T11:35:16;4.50;;;2.90;;
17422;SDS011;8829;47.932;7.810;2023-08-17T11:37:42;4.60;;;2.60;;
17422;SDS011;8829;47.932;7.810;2023-08-17T11:40:10;7.77;;;3.20;;
17422;SDS011;8829;47.932;7.810;2023-08-17T11:42:37;4.13;;;2.33;;
17422;SDS011;8829;47.932;7.810;2023-08-17T11:45:06;5.25;;;2.97;;
17422;SDS011;8829;47.932;7.810;2023-08-17T11:47:35;2.92;;;2.50;;
17422;SDS011;8829;47.932;7.810;2023-08-17T11:50:04;4.93;;;2.70;;
17422;SDS011;8829;47.932;7.810;2023-08-17T11:52:33;3.53;;;2.35;;
17422;SDS011;8829;47.932;7.810;2023-08-17T11:55:01;5.87;;;2.93;;
17422;SDS011;8829;47.932;7.810;2023-08-17T11:57:29;5.90;;;2.30;;
17422;SDS011;8829;47.932;7.810;2023-08-17T11:59:56;6.83;;;2.73;;
17422;SDS011;8829;47.932;7.810;2023-08-17T12:02:24;4.47;;;2.50;;
17422;SDS011;8829;47.932;7.810;2023-08-17T12:04:51;7.65;;;2.25;;
17422;SDS011;8829;47.932;7.810;2023-08-17T12:07:19;5.53;;;2.20;;
17422;SDS011;8829;47.932;7.810;2023-08-17T12:09:48;4.18;;;2.63;;
17422;SDS011;8829;47.932;7.810;2023-08-17T12:12:17;7.18;;;2.53;;
17422;SDS011;8829;47.932;7.810;2023-08-17T12:14:45;6.18;;;2.28;;
17422;SDS011;8829;47.932;7.810;2023-08-17T12:17:13;5.20;;;2.47;;
17422;SDS011;8829;47.932;7.810;2023-08-17T12:19:41;4.10;;;2.30;;
17422;SDS011;8829;47.932;7.810;2023-08-17T12:22:08;4.55;;;2.30;;
17422;SDS011;8829;47.932;7.810;2023-08-17T12:24:36;5.35;;;1.85;;
17422;SDS011;8829;47.932;7.810;2023-08-17T12:27:04;8.02;;;2.28;;
17422;SDS011;8829;47.932;7.810;2023-08-17T12:29:31;4.60;;;2.25;;
17422;SDS011;8829;47.932;7.810;2023-08-17T12:31:58;7.03;;;2.45;;
17422;SDS011;8829;47.932;7.810;2023-08-17T12:34:26;6.05;;;2.30;;
17422;SDS011;8829;47.932;7.810;2023-08-17T12:36:53;5.10;;;2.45;;
17422;SDS011;8829;47.932;7.810;2023-08-17T12:39:20;5.45;;;2.85;;
17422;SDS011;8829;47.932;7.810;2023-08-17T12:41:48;6.45;;;2.50;;
17422;SDS011;8829;47.932;7.810;2023-08-17T12:44:15;2.50;;;1.63;;
17422;SDS011;8829;47.932;7.810;2023-08-17T12:46:42;4.47;;;2.35;;
17422;SDS011;8829;47.932;7.810;2023-08-17T12:49:08;8.98;;;2.55;;
17422;SDS011;8829;47.932;7.810;2023-08-17T12:51:35;3.05;;;1.85;;
17422;SDS011;8829;47.932;7.810;2023-08-17T12:54:03;8.82;;;2.45;;
17422;SDS011;8829;47.932;7.810;2023-08-17T12:56:30;7.18;;;2.20;;
17422;SDS011;8829;47.932;7.810;2023-08-17T12:58:58;4.53;;;2.42;;
17422;SDS011;8829;47.932;7.810;2023-08-17T13:01:24;4.90;;;2.00;;
17422;SDS011;8829;47.932;7.810;2023-08-17T13:03:51;6.97;;;2.08;;
17422;SDS011;8829;47.932;7.810;2023-08-17T13:06:19;3.03;;;2.20;;
17422;SDS011;8829;47.932;7.810;2023-08-17T13:08:46;7.22;;;2.53;;
17422;SDS011;8829;47.932;7.810;2023-08-17T13:11:12;7.05;;;2.33;;
17422;SDS011;8829;47.932;7.810;2023-08-17T13:13:39;3.35;;;1.83;;
17422;SDS011;8829;47.932;7.810;2023-08-17T13:16:07;5.85;;;2.50;;
17422;SDS011;8829;47.932;7.810;2023-08-17T13:18:34;6.25;;;2.08;;
17422;SDS011;8829;47.932;7.810;2023-08-17T13:21:01;5.13;;;2.58;;
17422;SDS011;8829;47.932;7.810;2023-08-17T13:23:28;4.45;;;2.00;;
17422;SDS011;8829;47.932;7.810;2023-08-17T13:25:54;4.32;;;2.30;;
17422;SDS011;8829;47.932;7.810;2023-08-17T13:28:21;3.72;;;2.30;;
17422;SDS011;8829;47.932;7.810;2023-08-17T13:30:48;5.63;;;2.17;;
17422;SDS011;8829;47.932;7.810;2023-08-17T13:33:17;3.90;;;2.25;;
17422;SDS011;8829;47.932;7.810;2023-08-17T13:35:43;5.10;;;2.20;;
17422;SDS011;8829;47.932;7.810;2023-08-17T13:38:10;5.10;;;2.22;;
17422;SDS011;8829;47.932;7.810;2023-08-17T13:40:37;3.15;;;2.30;;
17422;SDS011;8829;47.932;7.810;2023-08-17T13:43:04;6.70;;;2.72;;
17422;SDS011;8829;47.932;7.810;2023-08-17T13:45:37;4.57;;;2.78;;
17422;SDS011;8829;47.932;7.810;2023-08-17T13:48:04;6.10;;;2.47;;
17422;SDS011;8829;47.932;7.810;2023-08-17T13:50:33;6.57;;;2.67;;
17422;SDS011;8829;47.932;7.810;2023-08-17T13:53:00;8.30;;;2.38;;
17422;SDS011;8829;47.932;7.810;2023-08-17T13:55:27;5.32;;;2.30;;
17422;SDS011;8829;47.932;7.810;2023-08-17T13:57:54;4.75;;;2.80;;
17422;SDS011;8829;47.932;7.810;2023-08-17T14:00:21;6.70;;;2.42;;
17422;SDS011;8829;47.932;7.810;2023-08-17T14:02:48;7.18;;;2.40;;
17422;SDS011;8829;47.932;7.810;2023-08-17T14:05:15;8.45;;;2.53;;
17422;SDS011;8829;47.932;7.810;2023-08-17T14:07:43;2.47;;;2.17;;
17422;SDS011;8829;47.932;7.810;2023-08-17T14:10:10;5.07;;;2.60;;
17422;SDS011;8829;47.932;7.810;2023-08-17T14:12:37;3.63;;;2.42;;
17422;SDS011;8829;47.932;7.810;2023-08-17T14:15:04;5.95;;;2.67;;
17422;SDS011;8829;47.932;7.810;2023-08-17T14:17:31;8.93;;;2.55;;
17422;SDS011;8829;47.932;7.810;2023-08-17T14:19:58;5.35;;;2.47;;
17422;SDS011;8829;47.932;7.810;2023-08-17T14:22:25;3.90;;;2.30;;
17422;SDS011;8829;47.932;7.810;2023-08-17T14:24:53;6.10;;;2.60;;
17422;SDS011;8829;47.932;7.810;2023-08-17T14:27:19;6.57;;;2.30;;
17422;SDS011;8829;47.932;7.810;2023-08-17T14:29:46;2.78;;;2.45;;
17422;SDS011;8829;47.932;7.810;2023-08-17T14:32:13;5.57;;;2.55;;
17422;SDS011;8829;47.932;7.810;2023-08-17T14:34:39;4.40;;;2.22;;
17422;SDS011;8829;47.932;7.810;2023-08-17T14:37:06;4.53;;;2.63;;
17422;SDS011;8829;47.932;7.810;2023-08-17T14:39:33;4.80;;;2.60;;
17422;SDS011;8829;47.932;7.810;2023-08-17T14:42:01;8.10;;;2.28;;
17422;SDS011;8829;47.932;7.810;2023-08-17T14:44:27;5.07;;;2.47;;
17422;SDS011;8829;47.932;7.810;2023-08-17T14:46:54;3.55;;;2.38;;
17422;SDS011;8829;47.932;7.810;2023-08-17T14:49:21;6.95;;;2.65;;
17422;SDS011;8829;47.932;7.810;2023-08-17T14:51:47;4.60;;;2.40;;
17422;SDS011;8829;47.932;7.810;2023-08-17T14:54:14;6.30;;;2.33;;
17422;SDS011;8829;47.932;7.810;2023-08-17T14:56:41;8.48;;;2.95;;
17422;SDS011;8829;47.932;7.810;2023-08-17T14:59:09;6.35;;;2.47;;
17422;SDS011;8829;47.932;7.810;2023-08-17T15:01:35;4.22;;;2.40;;